createdAt,value
2019-05-13T00:00:24.461Z,98251.09
2019-05-13T00:04:26.381Z,98250.72
2019-05-13T00:08:28.256Z,98247.78
2019-05-13T00:12:30.230Z,98251.31
2019-05-13T00:16:34.112Z,98249.57
2019-05-13T00:20:36.425Z,98254.41
2019-05-13T00:24:38.338Z,98247.83
2019-05-13T00:28:40.228Z,98250.38
2019-05-13T00:32:44.326Z,98249.09
2019-05-13T00:36:45.743Z,98253.80
2019-05-13T00:40:47.650Z,98261.55
2019-05-13T00:44:49.687Z,98260.14
2019-05-13T00:48:54.021Z,98261.71
2019-05-13T00:52:55.369Z,98255.20
2019-05-13T00:56:57.283Z,98261.50
2019-05-13T01:00:59.233Z,98261.29
2019-05-13T01:05:01.141Z,98262.09
2019-05-13T01:09:04.195Z,98262.99
2019-05-13T01:13:06.187Z,98266.01
2019-05-13T01:17:08.078Z,98264.16
2019-05-13T01:21:09.969Z,98265.86
2019-05-13T01:25:14.505Z,98264.39
2019-05-13T01:29:16.091Z,98270.64
2019-05-13T01:33:17.971Z,98266.65
2019-05-13T01:37:23.378Z,98276.21
2019-05-13T01:41:24.687Z,98275.34
2019-05-13T01:45:26.579Z,98278.13
2019-05-13T01:49:28.480Z,98273.28
2019-05-13T01:53:30.379Z,98279.37
2019-05-13T01:57:34.134Z,98286.46
2019-05-13T02:01:36.816Z,98284.02
2019-05-13T02:05:38.723Z,98290.52
2019-05-13T02:09:40.630Z,98289.20
2019-05-13T02:13:44.679Z,98295.36
2019-05-13T02:17:46.130Z,98289.60
2019-05-13T02:21:48.184Z,98288.10
2019-05-13T02:25:50.076Z,98290.48
2019-05-13T02:29:53.922Z,98295.70
2019-05-13T02:33:55.570Z,98295.94
2019-05-13T02:38:14.705Z,98292.97
2019-05-13T02:42:03.532Z,98289.02
2019-05-13T02:46:05.138Z,98290.41
2019-05-13T02:50:08.323Z,98290.72
2019-05-13T02:54:12.450Z,98283.34
2019-05-13T02:58:13.820Z,98287.44
2019-05-13T03:02:15.731Z,98297.34
2019-05-13T03:06:17.688Z,98303.64
2019-05-13T03:10:22.194Z,98301.66
2019-05-13T03:14:24.101Z,98302.66
2019-05-13T03:18:26.312Z,98304.95
2019-05-13T03:22:31.854Z,98307.75
2019-05-13T03:26:32.781Z,98309.42
2019-05-13T03:30:35.799Z,98315.83
2019-05-13T03:34:37.814Z,98319.64
2019-05-13T03:38:59.342Z,98325.11
2019-05-13T03:42:49.164Z,98328.24
2019-05-13T03:46:54.591Z,98333.03
2019-05-13T03:50:57.196Z,98339.27
2019-05-13T03:55:02.893Z,98343.23
2019-05-13T03:59:04.235Z,98351.12
2019-05-13T04:03:06.202Z,98352.45
2019-05-13T04:07:08.106Z,98355.73
2019-05-13T04:11:12.571Z,98353.11
2019-05-13T04:15:15.080Z,98359.52
2019-05-13T04:19:17.009Z,98365.89
2019-05-13T04:23:18.965Z,98370.50
2019-05-13T04:27:23.411Z,98377.94
2019-05-13T04:31:26.419Z,98373.80
2019-05-13T04:35:28.381Z,98384.66
2019-05-13T04:39:44.590Z,98390.25
2019-05-13T04:43:34.919Z,98383.02
2019-05-13T04:47:36.951Z,98385.98
2019-05-13T04:51:41.858Z,98391.56
2019-05-13T04:55:43.483Z,98393.02
2019-05-13T04:59:45.546Z,98388.09
2019-05-13T05:04:27.398Z,98398.45
2019-05-13T05:08:47.582Z,98404.70
2019-05-13T05:13:17.383Z,98401.37
2019-05-13T05:17:58.936Z,98316.92
2019-05-13T05:22:45.043Z,98404.20
2019-05-13T05:27:23.328Z,98400.16
2019-05-13T05:32:06.879Z,98405.26
2019-05-13T05:36:34.342Z,98415.93
2019-05-13T05:40:38.150Z,98417.81
2019-05-13T05:44:44.432Z,98414.17
2019-05-13T05:48:52.791Z,98417.30
2019-05-13T05:52:55.047Z,98419.22
2019-05-13T05:56:58.695Z,98416.37
2019-05-13T06:01:03.498Z,98421.16
2019-05-13T06:05:06.906Z,98426.34
2019-05-13T06:09:08.858Z,98426.73
2019-05-13T06:13:12.233Z,98430.34
2019-05-13T06:17:14.182Z,98431.33
2019-05-13T06:21:16.155Z,98427.64
2019-05-13T06:25:18.049Z,98435.52
2019-05-13T06:29:22.074Z,98434.27
2019-05-13T06:33:23.561Z,98436.30
2019-05-13T06:37:25.450Z,98437.25
2019-05-13T06:41:27.347Z,98430.23
2019-05-13T06:45:31.486Z,98429.92
2019-05-13T06:49:32.846Z,98432.13
2019-05-13T06:53:34.811Z,98427.49
2019-05-13T06:57:36.768Z,98431.63
2019-05-13T07:01:38.733Z,98427.23
2019-05-13T07:05:42.377Z,98432.98
2019-05-13T07:09:44.553Z,98438.29
2019-05-13T07:13:46.766Z,98432.39
2019-05-13T07:17:48.679Z,98428.98
2019-05-13T07:21:52.259Z,98427.92
2019-05-13T07:25:55.383Z,98426.16
2019-05-13T07:29:57.264Z,98430.58
2019-05-13T07:33:59.177Z,98431.53
2019-05-13T07:38:02.262Z,98430.13
2019-05-13T07:42:06.048Z,98431.32
2019-05-13T07:46:08.072Z,98425.93
2019-05-13T07:50:12.501Z,98415.47
2019-05-13T07:54:13.832Z,98421.66
2019-05-13T07:58:15.724Z,98419.20
2019-05-13T08:02:17.612Z,98421.22
2019-05-13T08:06:22.069Z,98419.50
2019-05-13T08:10:23.146Z,98421.61
2019-05-13T08:14:25.058Z,98414.34
2019-05-13T08:18:26.971Z,98405.52
2019-05-13T08:22:28.876Z,98409.90
2019-05-13T08:26:32.254Z,98405.91
2019-05-13T08:30:34.328Z,98402.55
2019-05-13T08:34:37.234Z,98404.44
2019-05-13T08:38:39.293Z,98402.78
2019-05-13T08:42:42.750Z,98404.23
2019-05-13T08:46:44.754Z,98389.61
2019-05-13T08:50:46.879Z,98401.81
2019-05-13T08:54:48.770Z,98395.67
2019-05-13T08:58:52.134Z,98396.05
2019-05-13T09:02:54.176Z,98400.91
2019-05-13T09:06:56.198Z,98401.25
2019-05-13T09:10:58.179Z,98386.03
2019-05-13T09:15:03.016Z,98389.35
2019-05-13T09:19:04.137Z,98383.55
2019-05-13T09:23:06.149Z,98390.00
2019-05-13T09:27:08.119Z,98389.28
2019-05-13T09:31:12.582Z,98388.78
2019-05-13T09:35:13.893Z,98401.16
2019-05-13T09:39:15.838Z,98405.65
2019-05-13T09:43:22.073Z,98386.12
2019-05-13T09:47:23.106Z,98374.70
2019-05-13T09:51:25.006Z,98378.55
2019-05-13T09:55:29.320Z,98384.89
2019-05-13T09:59:31.755Z,98382.27
2019-05-13T10:03:34.130Z,98362.42
2019-05-13T10:07:36.596Z,98365.73
2019-05-13T10:11:38.506Z,98369.03
2019-05-13T10:15:42.064Z,98359.84
2019-05-13T10:19:44.118Z,98355.20
2019-05-13T10:23:46.421Z,98365.13
2019-05-13T10:27:48.862Z,98369.32
2019-05-13T10:31:51.542Z,98372.84
2019-05-13T10:35:54.064Z,98373.10
2019-05-13T10:39:56.247Z,98360.09
2019-05-13T10:43:58.156Z,98359.01
2019-05-13T10:48:02.831Z,98353.23
2019-05-13T10:52:03.749Z,98352.09
2019-05-13T10:56:05.894Z,98350.48
2019-05-13T11:00:12.198Z,98341.45
2019-05-13T11:04:14.045Z,98335.45
2019-05-13T11:08:15.975Z,98325.53
2019-05-13T11:12:17.874Z,98324.98
2019-05-13T11:16:21.865Z,98323.14
2019-05-13T11:20:23.467Z,98327.21
2019-05-13T11:24:25.661Z,98324.81
2019-05-13T11:28:27.660Z,98314.46
2019-05-13T11:32:31.707Z,98321.45
2019-05-13T11:36:33.731Z,98325.13
2019-05-13T11:40:35.906Z,98322.00
2019-05-13T11:44:37.959Z,98307.34
2019-05-13T11:48:42.503Z,98306.95
2019-05-13T11:52:43.718Z,98294.43
2019-05-13T11:56:50.438Z,98282.16
2019-05-13T12:00:56.824Z,98288.81
2019-05-13T12:05:03.378Z,98286.14
2019-05-13T12:09:04.976Z,98287.41
2019-05-13T12:13:06.895Z,98294.39
2019-05-13T12:17:08.787Z,98284.33
2019-05-13T12:21:12.306Z,98289.42
2019-05-13T12:25:14.541Z,98289.16
2019-05-13T12:29:19.284Z,98272.08
2019-05-13T12:33:22.761Z,98265.67
2019-05-13T12:37:24.646Z,98262.27
2019-05-13T12:41:26.550Z,98280.50
2019-05-13T12:45:28.870Z,98270.17
2019-05-13T12:49:33.520Z,98258.27
2019-05-13T12:53:35.760Z,98255.42
2019-05-13T12:57:38.012Z,98255.08
2019-05-13T13:01:40.854Z,98263.04
2019-05-13T13:05:43.456Z,98257.42
2019-05-13T13:09:45.407Z,98254.16
2019-05-13T13:13:59.672Z,98245.82
2019-05-13T13:17:53.897Z,98245.14
2019-05-13T13:22:02.914Z,98249.89
2019-05-13T13:26:03.045Z,98244.29
2019-05-13T13:30:08.594Z,98238.93
2019-05-13T13:34:16.360Z,98235.30
2019-05-13T13:38:12.133Z,98242.74
2019-05-13T13:42:14.079Z,98229.09
2019-05-13T13:46:41.939Z,98235.06
2019-05-13T13:50:23.652Z,98220.39
2019-05-13T13:54:23.421Z,98223.20
2019-05-13T13:58:25.945Z,98219.00
2019-05-13T14:02:28.950Z,98213.55
2019-05-13T14:10:34.680Z,98216.28
2019-05-13T14:14:36.594Z,98209.23
2019-05-13T14:18:38.529Z,98213.69
2019-05-13T14:22:41.923Z,98218.58
2019-05-13T14:26:44.018Z,98209.91
2019-05-13T14:30:45.921Z,98197.92
2019-05-13T14:34:47.947Z,98206.35
2019-05-13T14:38:52.756Z,98203.48
2019-05-13T14:42:53.490Z,98216.56
2019-05-13T14:46:56.012Z,98213.67
2019-05-13T14:50:59.047Z,98199.52
2019-05-13T14:55:02.305Z,98199.88
2019-05-13T14:59:04.406Z,98202.55
2019-05-13T15:03:06.395Z,98201.47
2019-05-13T15:07:08.342Z,98210.47
2019-05-13T15:11:12.537Z,98201.66
2019-05-13T15:15:15.959Z,98198.67
2019-05-13T15:19:17.872Z,98211.52
2019-05-13T15:23:22.081Z,98197.41
2019-05-13T15:27:23.391Z,98202.48
2019-05-13T15:31:25.291Z,98201.45
2019-05-13T15:35:27.232Z,98203.84
2019-05-13T15:39:31.401Z,98203.67
2019-05-13T15:43:32.777Z,98203.37
2019-05-13T15:47:34.686Z,98203.09
2019-05-13T15:51:36.666Z,98200.33
2019-05-13T15:55:38.585Z,98197.45
2019-05-13T15:59:41.487Z,98181.90
2019-05-13T16:03:43.473Z,98192.53
2019-05-13T16:07:45.392Z,98195.41
2019-05-13T16:11:47.578Z,98202.75
2019-05-13T16:15:49.484Z,98198.48
2019-05-13T16:19:53.459Z,98207.69
2019-05-13T16:23:56.195Z,98208.52
2019-05-13T16:27:58.279Z,98198.17
2019-05-13T16:32:01.482Z,98196.97
2019-05-13T16:36:04.911Z,98201.85
2019-05-13T16:40:08.237Z,98206.28
2019-05-13T16:44:11.900Z,98203.86
2019-05-13T16:48:13.828Z,98208.83
2019-05-13T16:52:15.784Z,98209.34
2019-05-13T16:56:27.907Z,98214.96
2019-05-13T17:00:27.420Z,98212.41
2019-05-13T17:04:29.348Z,98212.93
2019-05-13T17:08:33.074Z,98220.56
2019-05-13T17:12:34.985Z,98224.81
2019-05-13T17:16:36.917Z,98220.94
2019-05-13T17:20:41.328Z,98225.58
2019-05-13T17:24:42.943Z,98228.71
2019-05-13T17:28:44.859Z,98230.33
2019-05-13T17:32:46.830Z,98236.12
2019-05-13T17:36:51.903Z,98240.78
2019-05-13T17:40:53.490Z,98240.78
2019-05-13T17:44:56.488Z,98248.79
2019-05-13T17:48:58.410Z,98251.05
2019-05-13T17:53:02.080Z,98255.34
2019-05-13T17:57:04.098Z,98262.68
2019-05-13T18:01:05.993Z,98272.55
2019-05-13T18:05:09.208Z,98271.77
2019-05-13T18:09:11.964Z,98265.02
2019-05-13T18:13:14.177Z,98259.89
2019-05-13T18:17:16.077Z,98266.12
2019-05-13T18:21:18.003Z,98274.23
2019-05-13T18:25:22.156Z,98272.48
2019-05-13T18:29:23.561Z,98277.48
2019-05-13T18:33:26.534Z,98268.97
2019-05-13T18:37:28.462Z,98282.10
2019-05-13T18:41:31.702Z,98283.17
2019-05-13T18:45:33.690Z,98276.03
2019-05-13T18:49:35.583Z,98283.27
2019-05-13T18:53:37.493Z,98286.43
2019-05-13T18:57:39.391Z,98288.56
2019-05-13T19:01:41.323Z,98290.73
2019-05-13T19:05:43.229Z,98289.42
2019-05-13T19:09:46.092Z,98296.09
2019-05-13T19:13:48.339Z,98284.75
2019-05-13T19:17:52.020Z,98299.27
2019-05-13T19:21:54.241Z,98295.91
2019-05-13T19:25:56.195Z,98290.56
2019-05-13T19:29:58.081Z,98287.00
2019-05-13T19:34:01.473Z,98287.94
2019-05-13T19:38:03.515Z,98288.54
2019-05-13T19:42:05.473Z,98288.63
2019-05-13T19:46:07.452Z,98284.26
2019-05-13T19:50:09.940Z,98288.01
2019-05-13T19:54:11.904Z,98284.52
2019-05-13T19:58:13.877Z,98287.69
2019-05-13T20:02:15.777Z,98282.20
2019-05-13T20:06:17.682Z,98281.45
2019-05-13T20:10:19.661Z,98284.30
2019-05-13T20:14:22.384Z,98282.52
2019-05-13T20:18:26.480Z,98288.28
2019-05-13T20:22:28.120Z,98291.36
2019-05-13T20:26:32.143Z,98288.31
2019-05-13T20:30:34.657Z,98277.67
2019-05-13T20:34:36.544Z,98274.14
2019-05-13T20:38:38.435Z,98270.30
2019-05-13T20:42:41.437Z,98265.78
2019-05-13T20:46:43.513Z,98269.84
2019-05-13T20:50:45.399Z,98272.99
2019-05-13T20:54:47.302Z,98276.83
2019-05-13T20:58:51.357Z,98270.94
2019-05-13T21:02:52.839Z,98267.78
2019-05-13T21:06:56.153Z,98262.52
2019-05-13T21:10:58.055Z,98256.14
2019-05-13T21:15:01.424Z,98253.59
2019-05-13T21:19:03.669Z,98255.45
2019-05-13T21:23:05.567Z,98243.14
2019-05-13T21:27:07.550Z,98242.20
2019-05-13T21:31:11.386Z,98241.04
2019-05-13T21:35:13.734Z,98246.50
2019-05-13T21:39:15.664Z,98243.90
2019-05-13T21:43:17.559Z,98242.46
2019-05-13T21:47:21.586Z,98243.94
2019-05-13T21:51:23.049Z,98242.27
2019-05-13T21:55:24.964Z,98236.07
2019-05-13T21:59:26.860Z,98236.22
2019-05-13T22:03:28.748Z,98239.36
2019-05-13T22:07:31.497Z,98233.92
2019-05-13T22:11:35.170Z,98226.23
2019-05-13T22:15:37.168Z,98133.64
2019-05-13T22:19:39.054Z,98218.69
2019-05-13T22:23:41.230Z,98214.73
2019-05-13T22:27:43.135Z,98218.52
2019-05-13T22:31:45.048Z,98215.41
2019-05-13T22:35:46.952Z,98219.03
2019-05-13T22:39:48.903Z,98213.45
2019-05-13T22:43:58.145Z,98213.76
2019-05-13T22:47:54.399Z,98202.44
2019-05-13T22:51:56.322Z,98196.03
2019-05-13T22:55:58.666Z,98193.07
2019-05-13T23:00:00.569Z,98190.59
2019-05-13T23:04:02.457Z,98185.00
2019-05-13T23:08:04.374Z,98180.23
2019-05-13T23:12:07.229Z,98189.77
2019-05-13T23:16:11.401Z,98181.23
2019-05-13T23:20:12.956Z,98176.61
2019-05-13T23:24:15.806Z,98180.37
2019-05-13T23:28:17.723Z,98177.41
2019-05-13T23:32:21.306Z,98175.27
2019-05-13T23:36:23.293Z,98168.70
2019-05-13T23:40:25.185Z,98161.18
2019-05-13T23:44:28.436Z,98155.06
2019-05-13T23:48:32.299Z,98145.36
2019-05-13T23:52:34.181Z,98150.95
2019-05-13T23:56:36.461Z,98146.98
